sensor_id;sensor_type;location;lat;lon;timestamp;temperature;humidity
65536;DHT22;52145;49.342;9.116;2022-10-22T08:30:31;15.00;99.90
65536;DHT22;52145;49.342;9.116;2022-10-22T08:32:58;15.20;99.90
65536;DHT22;52145;49.342;9.116;2022-10-22T08:35:24;15.50;99.90
65536;DHT22;52145;49.342;9.116;2022-10-22T08:37:49;15.80;99.90
65536;DHT22;52145;49.342;9.116;2022-10-22T08:40:37;16.00;99.90
65536;DHT22;52145;49.342;9.116;2022-10-22T08:43:27;16.30;99.90
65536;DHT22;52145;49.342;9.116;2022-10-22T08:50:55;16.60;99.90
65536;DHT22;52145;49.342;9.116;2022-10-22T08:56:13;16.80;99.90
65536;DHT22;52145;49.342;9.116;2022-10-22T08:58:48;17.10;99.90
65536;DHT22;52145;49.342;9.116;2022-10-22T09:01:33;17.20;99.90
65536;DHT22;52145;49.342;9.116;2022-10-22T09:04:23;17.10;99.90
65536;DHT22;52145;49.342;9.116;2022-10-22T09:06:56;16.60;99.90
65536;DHT22;52145;49.342;9.116;2022-10-22T09:09:26;16.50;99.90
65536;DHT22;52145;49.342;9.116;2022-10-22T09:11:53;16.50;99.90
65536;DHT22;52145;49.342;9.116;2022-10-22T09:14:29;16.60;99.90
65536;DHT22;52145;49.342;9.116;2022-10-22T09:19:59;16.60;99.90
65536;DHT22;52145;49.342;9.116;2022-10-22T09:22:31;16.60;99.90
65536;DHT22;52145;49.342;9.116;2022-10-22T09:25:23;16.70;99.90
65536;DHT22;52145;49.342;9.116;2022-10-22T09:27:50;17.10;99.90
65536;DHT22;52145;49.342;9.116;2022-10-22T09:30:28;17.00;99.90
65536;DHT22;52145;49.342;9.116;2022-10-22T09:35:25;17.50;99.90
65536;DHT22;52145;49.342;9.116;2022-10-22T09:37:54;17.90;99.90
65536;DHT22;52145;49.342;9.116;2022-10-22T09:40:21;18.40;99.90
65536;DHT22;52145;49.342;9.116;2022-10-22T09:42:47;18.20;99.90
65536;DHT22;52145;49.342;9.116;2022-10-22T09:45:22;18.50;99.90
65536;DHT22;52145;49.342;9.116;2022-10-22T09:47:48;18.50;99.90
65536;DHT22;52145;49.342;9.116;2022-10-22T09:50:47;19.00;99.90
65536;DHT22;52145;49.342;9.116;2022-10-22T09:53:20;19.10;99.90
65536;DHT22;52145;49.342;9.116;2022-10-22T09:55:52;19.70;99.90
65536;DHT22;52145;49.342;9.116;2022-10-22T09:58:18;19.50;99.90
65536;DHT22;52145;49.342;9.116;2022-10-22T10:00:53;19.50;99.90
65536;DHT22;52145;49.342;9.116;2022-10-22T10:03:22;19.50;99.90
65536;DHT22;52145;49.342;9.116;2022-10-22T10:05:51;19.80;99.90
65536;DHT22;52145;49.342;9.116;2022-10-22T10:08:17;19.40;99.90
65536;DHT22;52145;49.342;9.116;2022-10-22T10:10:58;19.80;99.90
65536;DHT22;52145;49.342;9.116;2022-10-22T10:13:41;20.20;99.90
65536;DHT22;52145;49.342;9.116;2022-10-22T10:25:41;20.40;99.90
65536;DHT22;52145;49.342;9.116;2022-10-22T10:28:38;19.90;99.90
65536;DHT22;52145;49.342;9.116;2022-10-22T10:36:59;18.90;99.90
65536;DHT22;52145;49.342;9.116;2022-10-22T10:42:01;19.50;99.90
65536;DHT22;52145;49.342;9.116;2022-10-22T10:47:26;20.60;99.90
65536;DHT22;52145;49.342;9.116;2022-10-22T10:50:06;20.90;99.90
65536;DHT22;52145;49.342;9.116;2022-10-22T10:52:42;21.50;99.90
65536;DHT22;52145;49.342;9.116;2022-10-22T10:55:27;22.30;99.00
65536;DHT22;52145;49.342;9.116;2022-10-22T11:00:54;22.90;98.10
65536;DHT22;52145;49.342;9.116;2022-10-22T11:06:11;23.60;96.90
65536;DHT22;52145;49.342;9.116;2022-10-22T11:08:53;24.80;94.40
65536;DHT22;52145;49.342;9.116;2022-10-22T11:11:30;24.20;95.00
65536;DHT22;52145;49.342;9.116;2022-10-22T11:14:16;24.80;94.80
65536;DHT22;52145;49.342;9.116;2022-10-22T11:16:54;24.70;93.70
65536;DHT22;52145;49.342;9.116;2022-10-22T11:19:39;25.10;93.40
65536;DHT22;52145;49.342;9.116;2022-10-22T11:22:27;25.00;92.70
65536;DHT22;52145;49.342;9.116;2022-10-22T11:25:17;25.50;91.70
65536;DHT22;52145;49.342;9.116;2022-10-22T11:27:56;26.10;91.20
65536;DHT22;52145;49.342;9.116;2022-10-22T11:30:25;25.00;91.90
65536;DHT22;52145;49.342;9.116;2022-10-22T11:33:00;25.50;91.60
65536;DHT22;52145;49.342;9.116;2022-10-22T11:35:30;25.80;91.40
65536;DHT22;52145;49.342;9.116;2022-10-22T11:37:57;26.50;90.10
65536;DHT22;52145;49.342;9.116;2022-10-22T11:40:33;25.80;90.10
65536;DHT22;52145;49.342;9.116;2022-10-22T11:43:05;26.30;89.00
65536;DHT22;52145;49.342;9.116;2022-10-22T11:45:41;26.20;89.40
65536;DHT22;52145;49.342;9.116;2022-10-22T11:50:55;26.90;87.10
65536;DHT22;52145;49.342;9.116;2022-10-22T11:56:02;27.90;84.10
65536;DHT22;52145;49.342;9.116;2022-10-22T12:16:38;26.30;84.10
65536;DHT22;52145;49.342;9.116;2022-10-22T12:21:39;28.80;81.10
65536;DHT22;52145;49.342;9.116;2022-10-22T12:24:06;27.90;81.00
65536;DHT22;52145;49.342;9.116;2022-10-22T12:26:32;27.60;83.10
65536;DHT22;52145;49.342;9.116;2022-10-22T12:29:05;26.20;85.30
65536;DHT22;52145;49.342;9.116;2022-10-22T12:31:37;26.40;85.40
65536;DHT22;52145;49.342;9.116;2022-10-22T12:34:03;26.10;84.80
65536;DHT22;52145;49.342;9.116;2022-10-22T12:36:34;27.00;84.30
65536;DHT22;52145;49.342;9.116;2022-10-22T12:39:02;27.40;83.00
65536;DHT22;52145;49.342;9.116;2022-10-22T12:41:33;27.60;82.70
65536;DHT22;52145;49.342;9.116;2022-10-22T12:44:00;28.80;81.40
65536;DHT22;52145;49.342;9.116;2022-10-22T12:46:27;29.30;78.70
65536;DHT22;52145;49.342;9.116;2022-10-22T12:48:54;27.20;80.30
65536;DHT22;52145;49.342;9.116;2022-10-22T12:51:20;27.20;82.00
65536;DHT22;52145;49.342;9.116;2022-10-22T12:53:57;26.70;82.40
65536;DHT22;52145;49.342;9.116;2022-10-22T12:56:30;27.30;80.00
65536;DHT22;52145;49.342;9.116;2022-10-22T12:58:58;28.30;80.10
65536;DHT22;52145;49.342;9.116;2022-10-22T13:01:27;27.60;80.90
65536;DHT22;52145;49.342;9.116;2022-10-22T13:04:05;28.60;79.80
65536;DHT22;52145;49.342;9.116;2022-10-22T13:06:44;30.20;77.90
65536;DHT22;52145;49.342;9.116;2022-10-22T13:09:21;29.20;77.60
65536;DHT22;52145;49.342;9.116;2022-10-22T13:12:02;26.40;82.30
65536;DHT22;52145;49.342;9.116;2022-10-22T13:14:33;27.10;81.60
65536;DHT22;52145;49.342;9.116;2022-10-22T13:22:41;27.10;82.60
65536;DHT22;52145;49.342;9.116;2022-10-22T13:27:49;25.50;83.70
65536;DHT22;52145;49.342;9.116;2022-10-22T13:32:49;24.60;87.80
65536;DHT22;52145;49.342;9.116;2022-10-22T13:35:17;24.00;89.10
65536;DHT22;52145;49.342;9.116;2022-10-22T13:37:43;23.90;88.80
65536;DHT22;52145;49.342;9.116;2022-10-22T13:40:12;23.90;89.10
65536;DHT22;52145;49.342;9.116;2022-10-22T13:42:38;24.30;88.70
65536;DHT22;52145;49.342;9.116;2022-10-22T13:45:05;24.40;89.10
65536;DHT22;52145;49.342;9.116;2022-10-22T13:47:30;24.70;87.00
65536;DHT22;52145;49.342;9.116;2022-10-22T13:50:01;25.20;85.90
65536;DHT22;52145;49.342;9.116;2022-10-22T13:52:35;26.50;84.50
65536;DHT22;52145;49.342;9.116;2022-10-22T13:55:16;26.20;82.60
65536;DHT22;52145;49.342;9.116;2022-10-22T13:57:42;28.30;80.50
65536;DHT22;52145;49.342;9.116;2022-10-22T14:00:17;28.30;78.70
65536;DHT22;52145;49.342;9.116;2022-10-22T14:02:45;27.70;80.60
65536;DHT22;52145;49.342;9.116;2022-10-22T14:05:11;29.40;77.80
65536;DHT22;52145;49.342;9.116;2022-10-22T14:07:38;29.60;76.40
65536;DHT22;52145;49.342;9.116;2022-10-22T14:10:33;29.20;77.50
65536;DHT22;52145;49.342;9.116;2022-10-22T14:12:59;29.90;75.90
65536;DHT22;52145;49.342;9.116;2022-10-22T14:15:26;29.80;73.80
65536;DHT22;52145;49.342;9.116;2022-10-22T14:17:57;27.10;78.20
65536;DHT22;52145;49.342;9.116;2022-10-22T14:20:28;25.50;82.40
65536;DHT22;52145;49.342;9.116;2022-10-22T14:22:55;24.80;85.80
65536;DHT22;52145;49.342;9.116;2022-10-22T14:25:25;24.20;88.30
65536;DHT22;52145;49.342;9.116;2022-10-22T14:27:50;23.50;90.60
65536;DHT22;52145;49.342;9.116;2022-10-22T14:30:19;23.10;91.30
65536;DHT22;52145;49.342;9.116;2022-10-22T14:32:45;22.60;93.10
65536;DHT22;52145;49.342;9.116;2022-10-22T14:35:13;22.10;94.30
65536;DHT22;52145;49.342;9.116;2022-10-22T14:37:39;21.80;93.30
65536;DHT22;52145;49.342;9.116;2022-10-22T14:40:06;21.50;93.40
65536;DHT22;52145;49.342;9.116;2022-10-22T14:42:36;21.50;93.50
65536;DHT22;52145;49.342;9.116;2022-10-22T14:45:05;21.70;94.80
65536;DHT22;52145;49.342;9.116;2022-10-22T14:47:30;21.90;93.50
65536;DHT22;52145;49.342;9.116;2022-10-22T14:49:56;22.00;93.30
65536;DHT22;52145;49.342;9.116;2022-10-22T14:52:22;21.80;95.10
65536;DHT22;52145;49.342;9.116;2022-10-22T14:54:47;21.70;96.30
65536;DHT22;52145;49.342;9.116;2022-10-22T14:57:13;21.60;96.10
65536;DHT22;52145;49.342;9.116;2022-10-22T14:59:41;21.50;96.20
65536;DHT22;52145;49.342;9.116;2022-10-22T15:02:10;21.50;96.90
65536;DHT22;52145;49.342;9.116;2022-10-22T15:04:36;21.40;97.10
65536;DHT22;52145;49.342;9.116;2022-10-22T15:07:02;21.20;97.40
65536;DHT22;52145;49.342;9.116;2022-10-22T15:09:27;21.00;97.90
65536;DHT22;52145;49.342;9.116;2022-10-22T15:11:53;20.90;98.00
65536;DHT22;52145;49.342;9.116;2022-10-22T15:14:18;20.70;97.80
65536;DHT22;52145;49.342;9.116;2022-10-22T15:16:44;20.60;99.30
65536;DHT22;52145;49.342;9.116;2022-10-22T15:19:10;20.40;99.90
65536;DHT22;52145;49.342;9.116;2022-10-22T15:21:35;20.30;99.90
65536;DHT22;52145;49.342;9.116;2022-10-22T15:24:01;20.20;99.90
65536;DHT22;52145;49.342;9.116;2022-10-22T15:26:26;20.30;99.90
65536;DHT22;52145;49.342;9.116;2022-10-22T15:28:53;20.10;99.90
65536;DHT22;52145;49.342;9.116;2022-10-22T15:31:43;20.20;99.70
65536;DHT22;52145;49.342;9.116;2022-10-22T15:34:08;20.00;99.90
65536;DHT22;52145;49.342;9.116;2022-10-22T15:36:34;20.10;99.90
65536;DHT22;52145;49.342;9.116;2022-10-22T15:39:04;20.10;99.90
65536;DHT22;52145;49.342;9.116;2022-10-22T15:41:29;20.10;99.90
65536;DHT22;52145;49.342;9.116;2022-10-22T15:43:55;19.90;99.90
65536;DHT22;52145;49.342;9.116;2022-10-22T15:46:20;19.90;99.90
65536;DHT22;52145;49.342;9.116;2022-10-22T15:48:46;19.70;99.90
65536;DHT22;52145;49.342;9.116;2022-10-22T15:51:14;19.50;99.90
65536;DHT22;52145;49.342;9.116;2022-10-22T15:53:40;19.40;99.90
65536;DHT22;52145;49.342;9.116;2022-10-22T15:56:06;19.30;99.90
65536;DHT22;52145;49.342;9.116;2022-10-22T15:58:32;19.20;99.90
65536;DHT22;52145;49.342;9.116;2022-10-22T16:01:09;19.00;99.90
65536;DHT22;52145;49.342;9.116;2022-10-22T16:03:34;18.90;99.90
65536;DHT22;52145;49.342;9.116;2022-10-22T16:06:00;18.70;99.90
65536;DHT22;52145;49.342;9.116;2022-10-22T16:08:27;18.50;99.90
65536;DHT22;52145;49.342;9.116;2022-10-22T16:10:52;18.20;99.90
65536;DHT22;52145;49.342;9.116;2022-10-22T16:13:19;18.10;99.90
65536;DHT22;52145;49.342;9.116;2022-10-22T16:15:46;18.00;99.90
65536;DHT22;52145;49.342;9.116;2022-10-22T16:18:11;17.90;99.90
65536;DHT22;52145;49.342;9.116;2022-10-22T16:20:38;17.80;99.90
65536;DHT22;52145;49.342;9.116;2022-10-22T16:23:04;17.70;99.90
65536;DHT22;52145;49.342;9.116;2022-10-22T16:25:29;17.70;99.90
65536;DHT22;52145;49.342;9.116;2022-10-22T16:27:55;17.60;99.90
65536;DHT22;52145;49.342;9.116;2022-10-22T16:30:20;17.50;99.90
65536;DHT22;52145;49.342;9.116;2022-10-22T16:32:46;17.50;99.90
65536;DHT22;52145;49.342;9.116;2022-10-22T16:35:11;17.50;99.90
65536;DHT22;52145;49.342;9.116;2022-10-22T16:37:37;17.40;99.90
65536;DHT22;52145;49.342;9.116;2022-10-22T16:40:03;17.20;99.90
65536;DHT22;52145;49.342;9.116;2022-10-22T16:42:29;17.30;99.90
65536;DHT22;52145;49.342;9.116;2022-10-22T16:44:54;17.20;99.90
65536;DHT22;52145;49.342;9.116;2022-10-22T16:47:20;17.20;99.90
65536;DHT22;52145;49.342;9.116;2022-10-22T16:49:45;17.10;99.90
65536;DHT22;52145;49.342;9.116;2022-10-22T16:52:11;16.90;99.90
65536;DHT22;52145;49.342;9.116;2022-10-22T16:54:36;16.90;99.90
65536;DHT22;52145;49.342;9.116;2022-10-22T16:57:02;16.90;99.90
65536;DHT22;52145;49.342;9.116;2022-10-22T16:59:27;16.90;99.90
65536;DHT22;52145;49.342;9.116;2022-10-22T17:01:53;16.80;99.90
65536;DHT22;52145;49.342;9.116;2022-10-22T17:04:19;16.70;99.90
65536;DHT22;52145;49.342;9.116;2022-10-22T17:06:44;16.60;99.90
65536;DHT22;52145;49.342;9.116;2022-10-22T17:09:10;16.50;99.90
65536;DHT22;52145;49.342;9.116;2022-10-22T17:11:36;16.20;99.90
65536;DHT22;52145;49.342;9.116;2022-10-22T17:14:02;15.90;99.90
65536;DHT22;52145;49.342;9.116;2022-10-22T17:16:29;15.70;99.90
65536;DHT22;52145;49.342;9.116;2022-10-22T17:18:55;15.60;99.90
65536;DHT22;52145;49.342;9.116;2022-10-22T17:21:21;15.40;99.90
65536;DHT22;52145;49.342;9.116;2022-10-22T17:23:47;15.30;99.90
65536;DHT22;52145;49.342;9.116;2022-10-22T17:26:18;15.20;99.90
65536;DHT22;52145;49.342;9.116;2022-10-22T17:28:45;15.20;99.90
65536;DHT22;52145;49.342;9.116;2022-10-22T17:33:49;15.00;99.90
65536;DHT22;52145;49.342;9.116;2022-10-22T17:36:16;14.80;99.90
65536;DHT22;52145;49.342;9.116;2022-10-22T17:38:42;14.80;99.90
65536;DHT22;52145;49.342;9.116;2022-10-22T17:41:14;14.70;99.90
65536;DHT22;52145;49.342;9.116;2022-10-22T17:43:41;14.70;99.90
65536;DHT22;52145;49.342;9.116;2022-10-22T17:46:10;14.70;99.90
65536;DHT22;52145;49.342;9.116;2022-10-22T17:48:38;14.60;99.90
65536;DHT22;52145;49.342;9.116;2022-10-22T17:51:11;14.60;99.90
65536;DHT22;52145;49.342;9.116;2022-10-22T17:53:39;14.40;99.90
65536;DHT22;52145;49.342;9.116;2022-10-22T17:56:09;14.40;99.90
65536;DHT22;52145;49.342;9.116;2022-10-22T17:58:35;14.30;99.90
65536;DHT22;52145;49.342;9.116;2022-10-22T18:01:01;14.30;99.90
65536;DHT22;52145;49.342;9.116;2022-10-22T18:03:27;14.20;99.90
65536;DHT22;52145;49.342;9.116;2022-10-22T18:05:53;14.10;99.90
65536;DHT22;52145;49.342;9.116;2022-10-22T18:08:19;14.20;99.90
65536;DHT22;52145;49.342;9.116;2022-10-22T18:10:44;14.20;99.90
65536;DHT22;52145;49.342;9.116;2022-10-22T18:13:10;14.10;99.90
65536;DHT22;52145;49.342;9.116;2022-10-22T18:15:36;14.10;99.90
65536;DHT22;52145;49.342;9.116;2022-10-22T18:18:02;14.00;99.90
65536;DHT22;52145;49.342;9.116;2022-10-22T18:20:28;14.00;99.90
65536;DHT22;52145;49.342;9.116;2022-10-22T18:22:54;14.00;99.90
65536;DHT22;52145;49.342;9.116;2022-10-22T18:25:19;14.00;99.90
65536;DHT22;52145;49.342;9.116;2022-10-22T18:27:45;13.90;99.90
65536;DHT22;52145;49.342;9.116;2022-10-22T18:30:11;13.90;99.90
65536;DHT22;52145;49.342;9.116;2022-10-22T18:32:37;13.80;99.90
65536;DHT22;52145;49.342;9.116;2022-10-22T18:35:03;13.80;99.90
65536;DHT22;52145;49.342;9.116;2022-10-22T18:37:30;13.70;99.90
65536;DHT22;52145;49.342;9.116;2022-10-22T18:39:56;13.60;99.90
65536;DHT22;52145;49.342;9.116;2022-10-22T18:42:21;13.60;99.90
65536;DHT22;52145;49.342;9.116;2022-10-22T18:44:49;13.50;99.90
65536;DHT22;52145;49.342;9.116;2022-10-22T18:47:14;13.50;99.90
65536;DHT22;52145;49.342;9.116;2022-10-22T18:49:40;13.50;99.90
65536;DHT22;52145;49.342;9.116;2022-10-22T18:52:05;13.50;99.90
65536;DHT22;52145;49.342;9.116;2022-10-22T18:54:31;13.40;99.90
65536;DHT22;52145;49.342;9.116;2022-10-22T18:56:56;13.40;99.90
65536;DHT22;52145;49.342;9.116;2022-10-22T18:59:24;13.40;99.90
65536;DHT22;52145;49.342;9.116;2022-10-22T19:01:54;13.40;99.90
65536;DHT22;52145;49.342;9.116;2022-10-22T19:04:20;13.30;99.90
65536;DHT22;52145;49.342;9.116;2022-10-22T19:06:46;13.30;99.90
65536;DHT22;52145;49.342;9.116;2022-10-22T19:09:13;13.30;99.90
65536;DHT22;52145;49.342;9.116;2022-10-22T19:11:39;13.30;99.90
65536;DHT22;52145;49.342;9.116;2022-10-22T19:14:04;13.30;99.90
65536;DHT22;52145;49.342;9.116;2022-10-22T19:16:30;13.20;99.90
65536;DHT22;52145;49.342;9.116;2022-10-22T19:19:04;13.20;99.90
65536;DHT22;52145;49.342;9.116;2022-10-22T19:21:30;13.20;99.90
65536;DHT22;52145;49.342;9.116;2022-10-22T19:23:57;13.20;99.90
65536;DHT22;52145;49.342;9.116;2022-10-22T19:26:24;13.20;99.90
65536;DHT22;52145;49.342;9.116;2022-10-22T19:28:51;13.10;99.90
65536;DHT22;52145;49.342;9.116;2022-10-22T19:31:20;13.10;99.90
65536;DHT22;52145;49.342;9.116;2022-10-22T19:33:46;13.00;99.90
65536;DHT22;52145;49.342;9.116;2022-10-22T19:36:14;13.00;99.90
65536;DHT22;52145;49.342;9.116;2022-10-22T19:38:43;13.00;99.90
65536;DHT22;52145;49.342;9.116;2022-10-22T19:41:10;12.90;99.90
65536;DHT22;52145;49.342;9.116;2022-10-22T19:43:39;12.90;99.90
65536;DHT22;52145;49.342;9.116;2022-10-22T19:46:05;12.90;99.90
65536;DHT22;52145;49.342;9.116;2022-10-22T19:48:31;12.90;99.90
65536;DHT22;52145;49.342;9.116;2022-10-22T19:51:03;12.90;99.90
65536;DHT22;52145;49.342;9.116;2022-10-22T19:53:30;12.80;99.90
65536;DHT22;52145;49.342;9.116;2022-10-22T19:55:57;12.80;99.90
65536;DHT22;52145;49.342;9.116;2022-10-22T19:58:22;12.80;99.90
65536;DHT22;52145;49.342;9.116;2022-10-22T20:00:48;12.80;99.90
65536;DHT22;52145;49.342;9.116;2022-10-22T20:03:13;12.70;99.90
65536;DHT22;52145;49.342;9.116;2022-10-22T20:05:40;12.70;99.90
65536;DHT22;52145;49.342;9.116;2022-10-22T20:08:09;12.70;99.90
65536;DHT22;52145;49.342;9.116;2022-10-22T20:10:35;12.70;99.90
65536;DHT22;52145;49.342;9.116;2022-10-22T20:13:01;12.60;99.90
65536;DHT22;52145;49.342;9.116;2022-10-22T20:15:27;12.60;99.90
65536;DHT22;52145;49.342;9.116;2022-10-22T20:17:53;12.60;99.90
65536;DHT22;52145;49.342;9.116;2022-10-22T20:20:18;12.60;99.90
65536;DHT22;52145;49.342;9.116;2022-10-22T20:22:44;12.60;99.90
65536;DHT22;52145;49.342;9.116;2022-10-22T20:25:11;12.60;99.90
65536;DHT22;52145;49.342;9.116;2022-10-22T20:27:37;12.60;99.90
65536;DHT22;52145;49.342;9.116;2022-10-22T20:30:04;12.50;99.90
65536;DHT22;52145;49.342;9.116;2022-10-22T20:32:30;12.50;99.90
65536;DHT22;52145;49.342;9.116;2022-10-22T20:34:56;12.50;99.90
65536;DHT22;52145;49.342;9.116;2022-10-22T20:37:21;12.50;99.90
65536;DHT22;52145;49.342;9.116;2022-10-22T20:39:50;12.50;99.90
65536;DHT22;52145;49.342;9.116;2022-10-22T20:42:15;12.50;99.90
65536;DHT22;52145;49.342;9.116;2022-10-22T20:44:41;12.50;99.90
65536;DHT22;52145;49.342;9.116;2022-10-22T20:47:07;12.40;99.90
65536;DHT22;52145;49.342;9.116;2022-10-22T20:49:34;12.40;99.90
65536;DHT22;52145;49.342;9.116;2022-10-22T20:52:00;12.50;99.90
65536;DHT22;52145;49.342;9.116;2022-10-22T20:54:25;12.40;99.90
65536;DHT22;52145;49.342;9.116;2022-10-22T20:56:51;12.40;99.90
65536;DHT22;52145;49.342;9.116;2022-10-22T20:59:17;12.40;99.90
65536;DHT22;52145;49.342;9.116;2022-10-22T21:01:46;12.30;99.90
65536;DHT22;52145;49.342;9.116;2022-10-22T21:04:13;12.30;99.90
65536;DHT22;52145;49.342;9.116;2022-10-22T21:06:38;12.30;99.90
65536;DHT22;52145;49.342;9.116;2022-10-22T21:09:06;12.30;99.90
65536;DHT22;52145;49.342;9.116;2022-10-22T21:11:32;12.20;99.90
65536;DHT22;52145;49.342;9.116;2022-10-22T21:13:58;12.10;99.90
65536;DHT22;52145;49.342;9.116;2022-10-22T21:16:23;12.20;99.90
65536;DHT22;52145;49.342;9.116;2022-10-22T21:18:49;12.20;99.90
65536;DHT22;52145;49.342;9.116;2022-10-22T21:21:14;12.10;99.90
65536;DHT22;52145;49.342;9.116;2022-10-22T21:23:42;12.10;99.90
65536;DHT22;52145;49.342;9.116;2022-10-22T21:26:08;12.10;99.90
65536;DHT22;52145;49.342;9.116;2022-10-22T21:28:34;12.10;99.90
65536;DHT22;52145;49.342;9.116;2022-10-22T21:31:07;12.10;99.90
65536;DHT22;52145;49.342;9.116;2022-10-22T21:33:37;12.00;99.90
65536;DHT22;52145;49.342;9.116;2022-10-22T21:36:04;12.00;99.90
65536;DHT22;52145;49.342;9.116;2022-10-22T21:38:30;12.00;99.90
65536;DHT22;52145;49.342;9.116;2022-10-22T21:40:56;12.00;99.90
65536;DHT22;52145;49.342;9.116;2022-10-22T21:43:22;12.00;99.90
65536;DHT22;52145;49.342;9.116;2022-10-22T21:45:47;11.90;99.90
65536;DHT22;52145;49.342;9.116;2022-10-22T21:48:14;11.80;99.90
65536;DHT22;52145;49.342;9.116;2022-10-22T21:50:42;11.90;99.90
65536;DHT22;52145;49.342;9.116;2022-10-22T21:53:08;11.80;99.90
65536;DHT22;52145;49.342;9.116;2022-10-22T21:55:40;11.80;99.90
65536;DHT22;52145;49.342;9.116;2022-10-22T21:58:07;11.80;99.90
65536;DHT22;52145;49.342;9.116;2022-10-22T22:00:33;11.80;99.90
65536;DHT22;52145;49.342;9.116;2022-10-22T22:02:58;11.70;99.90
65536;DHT22;52145;49.342;9.116;2022-10-22T22:05:24;11.70;99.90
65536;DHT22;52145;49.342;9.116;2022-10-22T22:07:50;11.70;99.90
65536;DHT22;52145;49.342;9.116;2022-10-22T22:10:15;11.60;99.90
65536;DHT22;52145;49.342;9.116;2022-10-22T22:12:41;11.60;99.90
65536;DHT22;52145;49.342;9.116;2022-10-22T22:15:07;11.70;99.90
65536;DHT22;52145;49.342;9.116;2022-10-22T22:17:33;11.70;99.90
65536;DHT22;52145;49.342;9.116;2022-10-22T22:19:58;11.60;99.90
65536;DHT22;52145;49.342;9.116;2022-10-22T22:22:44;11.60;99.90
65536;DHT22;52145;49.342;9.116;2022-10-22T22:25:11;11.60;99.90
65536;DHT22;52145;49.342;9.116;2022-10-22T22:27:36;11.50;99.90
65536;DHT22;52145;49.342;9.116;2022-10-22T22:30:02;11.50;99.90
65536;DHT22;52145;49.342;9.116;2022-10-22T22:32:29;11.40;99.90
65536;DHT22;52145;49.342;9.116;2022-10-22T22:34:55;11.40;99.90
65536;DHT22;52145;49.342;9.116;2022-10-22T22:37:22;11.40;99.90
65536;DHT22;52145;49.342;9.116;2022-10-22T22:40:08;11.40;99.90
65536;DHT22;52145;49.342;9.116;2022-10-22T22:42:37;11.50;99.90
65536;DHT22;52145;49.342;9.116;2022-10-22T22:45:24;11.50;99.90
65536;DHT22;52145;49.342;9.116;2022-10-22T22:47:50;11.50;99.90
65536;DHT22;52145;49.342;9.116;2022-10-22T22:50:16;11.50;99.90
65536;DHT22;52145;49.342;9.116;2022-10-22T22:52:45;11.50;99.90
65536;DHT22;52145;49.342;9.116;2022-10-22T22:55:12;11.50;99.90
65536;DHT22;52145;49.342;9.116;2022-10-22T22:57:39;11.50;99.90
65536;DHT22;52145;49.342;9.116;2022-10-22T23:00:09;11.50;99.90
65536;DHT22;52145;49.342;9.116;2022-10-22T23:02:38;11.40;99.90
65536;DHT22;52145;49.342;9.116;2022-10-22T23:05:06;11.30;99.90
65536;DHT22;52145;49.342;9.116;2022-10-22T23:07:35;11.30;99.90
65536;DHT22;52145;49.342;9.116;2022-10-22T23:10:43;11.30;99.90
65536;DHT22;52145;49.342;9.116;2022-10-22T23:13:14;11.20;99.90
65536;DHT22;52145;49.342;9.116;2022-10-22T23:15:43;11.20;99.90
65536;DHT22;52145;49.342;9.116;2022-10-22T23:18:20;11.10;99.90
65536;DHT22;52145;49.342;9.116;2022-10-22T23:21:12;11.00;99.90
65536;DHT22;52145;49.342;9.116;2022-10-22T23:23:55;11.10;99.90
65536;DHT22;52145;49.342;9.116;2022-10-22T23:27:03;11.00;99.90
65536;DHT22;52145;49.342;9.116;2022-10-22T23:29:33;11.10;99.90
65536;DHT22;52145;49.342;9.116;2022-10-22T23:32:12;11.10;99.90
65536;DHT22;52145;49.342;9.116;2022-10-22T23:35:08;11.10;99.90
65536;DHT22;52145;49.342;9.116;2022-10-22T23:37:35;11.10;99.90
65536;DHT22;52145;49.342;9.116;2022-10-22T23:40:02;11.10;99.90
65536;DHT22;52145;49.342;9.116;2022-10-22T23:42:28;11.10;99.90
65536;DHT22;52145;49.342;9.116;2022-10-22T23:44:54;11.00;99.90
65536;DHT22;52145;49.342;9.116;2022-10-22T23:47:19;11.00;99.90
65536;DHT22;52145;49.342;9.116;2022-10-22T23:49:45;11.10;99.90
65536;DHT22;52145;49.342;9.116;2022-10-22T23:52:10;11.20;99.90
65536;DHT22;52145;49.342;9.116;2022-10-22T23:54:36;11.20;99.90
65536;DHT22;52145;49.342;9.116;2022-10-22T23:57:01;11.20;99.90
65536;DHT22;52145;49.342;9.116;2022-10-22T23:59:27;11.10;99.90
